Terminal Aerodrome Forecast
Issued by NWS Upton, NY

Home | Current Version | Previous Version | Text Only | Print | Product List | Glossary On
Versions: 1 2 3 4 5 6 7 8 9 10 11 12 13 14 15 16 17 18 19 20 21 22 23 24 25 26 27 28 29 30 31
000
FTUS41 KOKX 041959 AAA
TAFISP
TAF AMD
KISP 041959Z 0420/0518 21016G25KT P6SM SCT030
     FM050000 23008KT P6SM SCT250
     FM050300 VRB03KT P6SM SCT250
     FM051500 27007KT P6SM SCT050=

USA.gov is the U.S. government's official web portal to all federal, state and local government web resources and services.